sensor_id;sensor_type;location;lat;lon;timestamp;temperature;humidity
45729;DHT22;31439;53.512;10.206;2022-11-15T00:00:05;7.70;99.90
45729;DHT22;31439;53.512;10.206;2022-11-15T00:02:31;7.60;99.90
45729;DHT22;31439;53.512;10.206;2022-11-15T00:04:56;7.60;99.90
45729;DHT22;31439;53.512;10.206;2022-11-15T00:07:22;7.60;99.90
45729;DHT22;31439;53.512;10.206;2022-11-15T00:09:48;7.60;99.90
45729;DHT22;31439;53.512;10.206;2022-11-15T00:12:13;7.50;99.90
45729;DHT22;31439;53.512;10.206;2022-11-15T00:14:39;7.50;99.90
45729;DHT22;31439;53.512;10.206;2022-11-15T00:17:04;7.50;99.90
45729;DHT22;31439;53.512;10.206;2022-11-15T00:19:30;7.50;99.90
45729;DHT22;31439;53.512;10.206;2022-11-15T00:21:56;7.50;99.90
45729;DHT22;31439;53.512;10.206;2022-11-15T00:24:21;7.60;99.90
45729;DHT22;31439;53.512;10.206;2022-11-15T00:26:53;7.50;99.90
45729;DHT22;31439;53.512;10.206;2022-11-15T00:29:18;7.40;99.90
45729;DHT22;31439;53.512;10.206;2022-11-15T00:31:44;7.70;99.90
45729;DHT22;31439;53.512;10.206;2022-11-15T00:34:10;7.50;99.90
45729;DHT22;31439;53.512;10.206;2022-11-15T00:36:36;7.50;99.90
45729;DHT22;31439;53.512;10.206;2022-11-15T00:39:04;7.70;99.90
45729;DHT22;31439;53.512;10.206;2022-11-15T00:41:31;7.60;99.90
45729;DHT22;31439;53.512;10.206;2022-11-15T00:43:56;7.60;99.90
45729;DHT22;31439;53.512;10.206;2022-11-15T00:46:22;7.60;99.90
45729;DHT22;31439;53.512;10.206;2022-11-15T00:48:48;7.60;99.90
45729;DHT22;31439;53.512;10.206;2022-11-15T00:51:13;7.70;99.90
45729;DHT22;31439;53.512;10.206;2022-11-15T00:53:39;7.60;99.90
45729;DHT22;31439;53.512;10.206;2022-11-15T00:56:05;7.50;99.90
45729;DHT22;31439;53.512;10.206;2022-11-15T00:58:30;7.70;99.90
45729;DHT22;31439;53.512;10.206;2022-11-15T01:00:56;7.80;99.90
45729;DHT22;31439;53.512;10.206;2022-11-15T01:03:22;7.70;99.90
45729;DHT22;31439;53.512;10.206;2022-11-15T01:05:47;7.80;99.90
45729;DHT22;31439;53.512;10.206;2022-11-15T01:08:14;7.70;99.90
45729;DHT22;31439;53.512;10.206;2022-11-15T01:10:40;7.90;99.90
45729;DHT22;31439;53.512;10.206;2022-11-15T01:13:06;7.90;99.90
45729;DHT22;31439;53.512;10.206;2022-11-15T01:15:32;7.90;99.90
45729;DHT22;31439;53.512;10.206;2022-11-15T01:17:57;7.90;99.90
45729;DHT22;31439;53.512;10.206;2022-11-15T01:20:23;7.90;99.90
45729;DHT22;31439;53.512;10.206;2022-11-15T01:22:48;7.90;99.90
45729;DHT22;31439;53.512;10.206;2022-11-15T01:25:14;7.90;99.90
45729;DHT22;31439;53.512;10.206;2022-11-15T01:27:39;7.90;99.90
45729;DHT22;31439;53.512;10.206;2022-11-15T01:30:06;7.90;99.90
45729;DHT22;31439;53.512;10.206;2022-11-15T01:32:31;7.90;99.90
45729;DHT22;31439;53.512;10.206;2022-11-15T01:34:57;7.80;99.90
45729;DHT22;31439;53.512;10.206;2022-11-15T01:37:23;7.80;99.90
45729;DHT22;31439;53.512;10.206;2022-11-15T01:39:48;7.80;99.90
45729;DHT22;31439;53.512;10.206;2022-11-15T01:42:14;7.80;99.90
45729;DHT22;31439;53.512;10.206;2022-11-15T01:49:58;7.80;99.90
45729;DHT22;31439;53.512;10.206;2022-11-15T01:52:26;7.80;99.90
45729;DHT22;31439;53.512;10.206;2022-11-15T01:55:08;7.80;99.90
45729;DHT22;31439;53.512;10.206;2022-11-15T01:57:34;7.70;99.90
45729;DHT22;31439;53.512;10.206;2022-11-15T02:00:02;7.70;99.90
45729;DHT22;31439;53.512;10.206;2022-11-15T02:02:28;7.80;99.90
45729;DHT22;31439;53.512;10.206;2022-11-15T02:04:54;7.70;99.90
45729;DHT22;31439;53.512;10.206;2022-11-15T02:07:21;7.80;99.90
45729;DHT22;31439;53.512;10.206;2022-11-15T02:09:47;7.70;99.90
45729;DHT22;31439;53.512;10.206;2022-11-15T02:12:18;7.80;99.90
45729;DHT22;31439;53.512;10.206;2022-11-15T02:14:50;7.80;99.90
45729;DHT22;31439;53.512;10.206;2022-11-15T02:42:19;7.70;99.90
45729;DHT22;31439;53.512;10.206;2022-11-15T02:45:07;7.70;99.90
45729;DHT22;31439;53.512;10.206;2022-11-15T02:47:40;7.60;99.90
45729;DHT22;31439;53.512;10.206;2022-11-15T02:50:10;7.60;99.90
45729;DHT22;31439;53.512;10.206;2022-11-15T02:52:36;7.70;99.90
45729;DHT22;31439;53.512;10.206;2022-11-15T02:55:02;7.60;99.90
45729;DHT22;31439;53.512;10.206;2022-11-15T02:57:50;7.70;99.90
45729;DHT22;31439;53.512;10.206;2022-11-15T03:00:20;7.60;99.90
45729;DHT22;31439;53.512;10.206;2022-11-15T03:16:54;7.60;99.90
45729;DHT22;31439;53.512;10.206;2022-11-15T03:22:11;7.70;99.90
45729;DHT22;31439;53.512;10.206;2022-11-15T03:24:37;7.70;99.90
45729;DHT22;31439;53.512;10.206;2022-11-15T03:27:06;7.70;99.90
45729;DHT22;31439;53.512;10.206;2022-11-15T03:29:39;7.80;99.90
45729;DHT22;31439;53.512;10.206;2022-11-15T03:32:14;7.70;99.90
45729;DHT22;31439;53.512;10.206;2022-11-15T03:37:21;7.70;99.90
45729;DHT22;31439;53.512;10.206;2022-11-15T03:39:47;7.70;99.90
45729;DHT22;31439;53.512;10.206;2022-11-15T03:42:34;7.80;99.90
45729;DHT22;31439;53.512;10.206;2022-11-15T03:45:22;7.70;99.90
45729;DHT22;31439;53.512;10.206;2022-11-15T03:47:53;7.70;99.90
45729;DHT22;31439;53.512;10.206;2022-11-15T03:50:21;7.80;99.90
45729;DHT22;31439;53.512;10.206;2022-11-15T03:52:48;7.80;99.90
45729;DHT22;31439;53.512;10.206;2022-11-15T03:55:19;7.60;99.90
45729;DHT22;31439;53.512;10.206;2022-11-15T03:57:47;7.60;99.90
45729;DHT22;31439;53.512;10.206;2022-11-15T04:00:13;7.60;99.90
45729;DHT22;31439;53.512;10.206;2022-11-15T04:02:39;7.60;99.90
45729;DHT22;31439;53.512;10.206;2022-11-15T04:05:05;7.60;99.90
45729;DHT22;31439;53.512;10.206;2022-11-15T04:07:30;7.70;99.90
45729;DHT22;31439;53.512;10.206;2022-11-15T04:09:56;7.70;99.90
45729;DHT22;31439;53.512;10.206;2022-11-15T04:12:29;7.80;99.90
45729;DHT22;31439;53.512;10.206;2022-11-15T04:15:07;7.60;99.90
45729;DHT22;31439;53.512;10.206;2022-11-15T04:20:11;7.60;99.90
45729;DHT22;31439;53.512;10.206;2022-11-15T04:22:56;7.60;99.90
45729;DHT22;31439;53.512;10.206;2022-11-15T04:25:41;7.70;99.90
45729;DHT22;31439;53.512;10.206;2022-11-15T04:28:07;7.70;99.90
45729;DHT22;31439;53.512;10.206;2022-11-15T04:30:33;7.70;99.90
45729;DHT22;31439;53.512;10.206;2022-11-15T04:32:59;7.70;99.90
45729;DHT22;31439;53.512;10.206;2022-11-15T04:35:24;7.70;99.90
45729;DHT22;31439;53.512;10.206;2022-11-15T04:37:50;7.70;99.90
45729;DHT22;31439;53.512;10.206;2022-11-15T04:40:16;7.70;99.90
45729;DHT22;31439;53.512;10.206;2022-11-15T04:42:41;7.70;99.90
45729;DHT22;31439;53.512;10.206;2022-11-15T04:45:10;7.90;99.90
45729;DHT22;31439;53.512;10.206;2022-11-15T04:47:36;7.80;99.90
45729;DHT22;31439;53.512;10.206;2022-11-15T04:50:02;7.70;99.90
45729;DHT22;31439;53.512;10.206;2022-11-15T04:52:28;7.80;99.90
45729;DHT22;31439;53.512;10.206;2022-11-15T04:54:53;7.90;99.90
45729;DHT22;31439;53.512;10.206;2022-11-15T04:57:19;8.00;99.90
45729;DHT22;31439;53.512;10.206;2022-11-15T04:59:44;7.90;99.90
45729;DHT22;31439;53.512;10.206;2022-11-15T05:02:10;7.90;99.90
45729;DHT22;31439;53.512;10.206;2022-11-15T05:04:35;8.00;99.90
45729;DHT22;31439;53.512;10.206;2022-11-15T05:07:01;8.00;99.90
45729;DHT22;31439;53.512;10.206;2022-11-15T05:09:27;8.20;99.90
45729;DHT22;31439;53.512;10.206;2022-11-15T05:11:53;8.10;99.90
45729;DHT22;31439;53.512;10.206;2022-11-15T05:14:18;8.10;99.90
45729;DHT22;31439;53.512;10.206;2022-11-15T05:16:44;8.30;99.90
45729;DHT22;31439;53.512;10.206;2022-11-15T05:19:09;8.30;99.90
45729;DHT22;31439;53.512;10.206;2022-11-15T05:21:35;8.30;99.90
45729;DHT22;31439;53.512;10.206;2022-11-15T05:24:01;8.30;99.90
45729;DHT22;31439;53.512;10.206;2022-11-15T05:26:27;8.40;99.90
45729;DHT22;31439;53.512;10.206;2022-11-15T05:28:54;8.40;99.90
45729;DHT22;31439;53.512;10.206;2022-11-15T05:31:21;8.30;99.90
45729;DHT22;31439;53.512;10.206;2022-11-15T05:33:48;8.40;99.90
45729;DHT22;31439;53.512;10.206;2022-11-15T05:38:53;8.40;99.90
45729;DHT22;31439;53.512;10.206;2022-11-15T05:41:20;8.40;99.90
45729;DHT22;31439;53.512;10.206;2022-11-15T05:43:48;8.40;99.90
45729;DHT22;31439;53.512;10.206;2022-11-15T05:46:14;8.50;99.90
45729;DHT22;31439;53.512;10.206;2022-11-15T05:48:43;8.40;99.90
45729;DHT22;31439;53.512;10.206;2022-11-15T05:51:09;8.40;99.90
45729;DHT22;31439;53.512;10.206;2022-11-15T05:53:37;8.40;99.90
45729;DHT22;31439;53.512;10.206;2022-11-15T05:56:04;8.40;99.90
45729;DHT22;31439;53.512;10.206;2022-11-15T05:58:32;8.40;99.90
45729;DHT22;31439;53.512;10.206;2022-11-15T06:00:58;8.40;99.90
45729;DHT22;31439;53.512;10.206;2022-11-15T06:03:24;8.40;99.90
45729;DHT22;31439;53.512;10.206;2022-11-15T06:05:50;8.40;99.90
45729;DHT22;31439;53.512;10.206;2022-11-15T06:08:15;8.60;99.90
45729;DHT22;31439;53.512;10.206;2022-11-15T06:10:41;8.40;99.90
45729;DHT22;31439;53.512;10.206;2022-11-15T06:13:07;8.30;99.90
45729;DHT22;31439;53.512;10.206;2022-11-15T06:15:33;8.30;99.90
45729;DHT22;31439;53.512;10.206;2022-11-15T06:17:59;8.50;99.90
45729;DHT22;31439;53.512;10.206;2022-11-15T06:20:26;8.50;99.90
45729;DHT22;31439;53.512;10.206;2022-11-15T06:22:59;8.40;99.90
45729;DHT22;31439;53.512;10.206;2022-11-15T06:25:26;8.40;99.90
45729;DHT22;31439;53.512;10.206;2022-11-15T06:27:52;8.40;99.90
45729;DHT22;31439;53.512;10.206;2022-11-15T06:30:19;8.30;99.90
45729;DHT22;31439;53.512;10.206;2022-11-15T06:32:44;8.30;99.90
45729;DHT22;31439;53.512;10.206;2022-11-15T06:35:10;8.50;99.90
45729;DHT22;31439;53.512;10.206;2022-11-15T06:37:36;8.30;99.90
45729;DHT22;31439;53.512;10.206;2022-11-15T06:40:02;8.30;99.90
45729;DHT22;31439;53.512;10.206;2022-11-15T06:42:27;8.30;99.90
45729;DHT22;31439;53.512;10.206;2022-11-15T06:44:53;8.30;99.90
45729;DHT22;31439;53.512;10.206;2022-11-15T06:47:19;8.30;99.90
45729;DHT22;31439;53.512;10.206;2022-11-15T06:49:44;8.20;99.90
45729;DHT22;31439;53.512;10.206;2022-11-15T06:52:10;8.20;99.90
45729;DHT22;31439;53.512;10.206;2022-11-15T06:54:35;8.20;99.90
45729;DHT22;31439;53.512;10.206;2022-11-15T06:57:01;8.20;99.90
45729;DHT22;31439;53.512;10.206;2022-11-15T06:59:26;8.20;99.90
45729;DHT22;31439;53.512;10.206;2022-11-15T07:01:55;8.20;99.90
45729;DHT22;31439;53.512;10.206;2022-11-15T07:04:20;8.20;99.90
45729;DHT22;31439;53.512;10.206;2022-11-15T07:06:49;8.20;99.90
45729;DHT22;31439;53.512;10.206;2022-11-15T07:09:15;8.20;99.90
45729;DHT22;31439;53.512;10.206;2022-11-15T07:11:40;8.30;99.90
45729;DHT22;31439;53.512;10.206;2022-11-15T07:14:06;8.30;99.90
45729;DHT22;31439;53.512;10.206;2022-11-15T07:16:31;8.20;99.90
45729;DHT22;31439;53.512;10.206;2022-11-15T07:18:57;8.20;99.90
45729;DHT22;31439;53.512;10.206;2022-11-15T07:21:23;8.40;99.90
45729;DHT22;31439;53.512;10.206;2022-11-15T07:23:48;8.30;99.90
45729;DHT22;31439;53.512;10.206;2022-11-15T07:26:14;8.30;99.90
45729;DHT22;31439;53.512;10.206;2022-11-15T07:28:39;8.40;99.90
45729;DHT22;31439;53.512;10.206;2022-11-15T07:31:07;8.50;99.90
45729;DHT22;31439;53.512;10.206;2022-11-15T07:33:33;8.50;99.90
45729;DHT22;31439;53.512;10.206;2022-11-15T07:36:04;9.30;99.90
45729;DHT22;31439;53.512;10.206;2022-11-15T07:38:30;10.20;99.90
45729;DHT22;31439;53.512;10.206;2022-11-15T07:41:01;10.30;99.90
45729;DHT22;31439;53.512;10.206;2022-11-15T07:43:27;9.90;99.90
45729;DHT22;31439;53.512;10.206;2022-11-15T07:45:58;9.50;99.90
45729;DHT22;31439;53.512;10.206;2022-11-15T07:48:23;9.30;99.90
45729;DHT22;31439;53.512;10.206;2022-11-15T07:50:49;9.20;99.90
45729;DHT22;31439;53.512;10.206;2022-11-15T07:53:15;9.00;99.90
45729;DHT22;31439;53.512;10.206;2022-11-15T07:55:41;8.80;99.90
45729;DHT22;31439;53.512;10.206;2022-11-15T07:58:09;8.80;99.90
45729;DHT22;31439;53.512;10.206;2022-11-15T08:00:35;8.80;99.90
45729;DHT22;31439;53.512;10.206;2022-11-15T08:03:03;8.80;99.90
45729;DHT22;31439;53.512;10.206;2022-11-15T08:05:28;8.70;99.90
45729;DHT22;31439;53.512;10.206;2022-11-15T08:07:57;8.70;99.90
45729;DHT22;31439;53.512;10.206;2022-11-15T08:10:22;8.70;99.90
45729;DHT22;31439;53.512;10.206;2022-11-15T08:12:55;8.80;99.90
45729;DHT22;31439;53.512;10.206;2022-11-15T08:15:21;8.70;99.90
45729;DHT22;31439;53.512;10.206;2022-11-15T08:17:47;8.80;99.90
45729;DHT22;31439;53.512;10.206;2022-11-15T08:20:12;8.80;99.90
45729;DHT22;31439;53.512;10.206;2022-11-15T08:22:38;8.70;99.90
45729;DHT22;31439;53.512;10.206;2022-11-15T08:25:03;8.80;99.90
45729;DHT22;31439;53.512;10.206;2022-11-15T08:27:29;8.80;99.90
45729;DHT22;31439;53.512;10.206;2022-11-15T08:29:55;8.80;99.90
45729;DHT22;31439;53.512;10.206;2022-11-15T08:32:22;8.80;99.90
45729;DHT22;31439;53.512;10.206;2022-11-15T08:34:47;8.70;99.90
45729;DHT22;31439;53.512;10.206;2022-11-15T08:37:13;8.80;99.90
45729;DHT22;31439;53.512;10.206;2022-11-15T08:39:38;8.80;99.90
45729;DHT22;31439;53.512;10.206;2022-11-15T08:42:04;8.90;99.90
45729;DHT22;31439;53.512;10.206;2022-11-15T08:44:29;8.80;99.90
45729;DHT22;31439;53.512;10.206;2022-11-15T08:46:55;8.80;99.90
45729;DHT22;31439;53.512;10.206;2022-11-15T08:49:21;8.80;99.90
45729;DHT22;31439;53.512;10.206;2022-11-15T08:51:46;8.70;99.90
45729;DHT22;31439;53.512;10.206;2022-11-15T08:54:12;8.70;99.90
45729;DHT22;31439;53.512;10.206;2022-11-15T08:56:37;8.70;99.90
45729;DHT22;31439;53.512;10.206;2022-11-15T08:59:03;8.90;99.90
45729;DHT22;31439;53.512;10.206;2022-11-15T09:01:29;8.80;99.90
45729;DHT22;31439;53.512;10.206;2022-11-15T09:03:54;9.00;99.90
45729;DHT22;31439;53.512;10.206;2022-11-15T09:06:20;9.00;99.90
45729;DHT22;31439;53.512;10.206;2022-11-15T09:08:46;9.10;99.90
45729;DHT22;31439;53.512;10.206;2022-11-15T09:11:11;9.20;99.90
45729;DHT22;31439;53.512;10.206;2022-11-15T09:13:37;9.30;99.90
45729;DHT22;31439;53.512;10.206;2022-11-15T09:16:04;9.50;99.90
45729;DHT22;31439;53.512;10.206;2022-11-15T09:18:30;9.60;99.90
45729;DHT22;31439;53.512;10.206;2022-11-15T09:20:59;9.70;99.90
45729;DHT22;31439;53.512;10.206;2022-11-15T09:23:27;9.90;99.90
45729;DHT22;31439;53.512;10.206;2022-11-15T09:25:58;10.00;99.90
45729;DHT22;31439;53.512;10.206;2022-11-15T09:28:24;10.10;99.90
45729;DHT22;31439;53.512;10.206;2022-11-15T09:30:50;10.20;99.90
45729;DHT22;31439;53.512;10.206;2022-11-15T09:33:15;10.30;99.90
45729;DHT22;31439;53.512;10.206;2022-11-15T09:35:44;10.30;99.90
45729;DHT22;31439;53.512;10.206;2022-11-15T09:38:09;10.40;99.90
45729;DHT22;31439;53.512;10.206;2022-11-15T09:40:36;10.60;99.90
45729;DHT22;31439;53.512;10.206;2022-11-15T09:43:27;10.50;99.90
45729;DHT22;31439;53.512;10.206;2022-11-15T09:46:01;10.50;99.90
45729;DHT22;31439;53.512;10.206;2022-11-15T09:48:59;10.50;99.90
45729;DHT22;31439;53.512;10.206;2022-11-15T09:51:38;10.40;99.90
45729;DHT22;31439;53.512;10.206;2022-11-15T09:54:28;10.40;99.90
45729;DHT22;31439;53.512;10.206;2022-11-15T09:57:17;10.30;99.90
45729;DHT22;31439;53.512;10.206;2022-11-15T10:05:49;10.30;99.90
45729;DHT22;31439;53.512;10.206;2022-11-15T10:11:22;10.40;99.90
45729;DHT22;31439;53.512;10.206;2022-11-15T10:13:49;10.50;99.90
45729;DHT22;31439;53.512;10.206;2022-11-15T10:24:37;10.60;99.90
45729;DHT22;31439;53.512;10.206;2022-11-15T10:27:11;10.60;99.90
45729;DHT22;31439;53.512;10.206;2022-11-15T10:29:48;10.60;99.90
45729;DHT22;31439;53.512;10.206;2022-11-15T10:32:16;10.70;99.90
45729;DHT22;31439;53.512;10.206;2022-11-15T10:34:42;10.70;99.90
45729;DHT22;31439;53.512;10.206;2022-11-15T10:37:08;10.70;99.90
45729;DHT22;31439;53.512;10.206;2022-11-15T10:39:34;10.70;99.90
45729;DHT22;31439;53.512;10.206;2022-11-15T10:42:17;10.70;99.90
45729;DHT22;31439;53.512;10.206;2022-11-15T10:44:44;10.80;99.90
45729;DHT22;31439;53.512;10.206;2022-11-15T10:50:02;11.00;99.90
45729;DHT22;31439;53.512;10.206;2022-11-15T10:52:30;11.00;99.90
45729;DHT22;31439;53.512;10.206;2022-11-15T10:55:03;10.90;99.90
45729;DHT22;31439;53.512;10.206;2022-11-15T10:57:32;11.00;99.90
45729;DHT22;31439;53.512;10.206;2022-11-15T11:05:31;11.20;99.90
45729;DHT22;31439;53.512;10.206;2022-11-15T11:10:36;11.30;99.90
45729;DHT22;31439;53.512;10.206;2022-11-15T11:13:25;11.20;99.90
45729;DHT22;31439;53.512;10.206;2022-11-15T11:16:14;11.20;99.90
45729;DHT22;31439;53.512;10.206;2022-11-15T11:21:13;11.30;99.90
45729;DHT22;31439;53.512;10.206;2022-11-15T11:23:55;11.30;99.90
45729;DHT22;31439;53.512;10.206;2022-11-15T11:26:48;11.40;99.90
45729;DHT22;31439;53.512;10.206;2022-11-15T11:29:32;11.30;99.90
45729;DHT22;31439;53.512;10.206;2022-11-15T11:32:18;11.40;99.90
45729;DHT22;31439;53.512;10.206;2022-11-15T11:40:41;12.50;99.90
45729;DHT22;31439;53.512;10.206;2022-11-15T11:43:30;12.20;99.90
45729;DHT22;31439;53.512;10.206;2022-11-15T11:46:53;12.10;99.90
45729;DHT22;31439;53.512;10.206;2022-11-15T11:52:16;11.80;99.90
45729;DHT22;31439;53.512;10.206;2022-11-15T11:55:20;11.80;99.90
45729;DHT22;31439;53.512;10.206;2022-11-15T12:01:33;11.60;99.90
45729;DHT22;31439;53.512;10.206;2022-11-15T12:09:43;11.60;99.90
45729;DHT22;31439;53.512;10.206;2022-11-15T12:12:23;11.50;99.90
45729;DHT22;31439;53.512;10.206;2022-11-15T12:15:03;11.60;99.90
45729;DHT22;31439;53.512;10.206;2022-11-15T12:17:31;11.70;99.90
45729;DHT22;31439;53.512;10.206;2022-11-15T12:20:03;11.70;99.90
45729;DHT22;31439;53.512;10.206;2022-11-15T12:25:51;11.80;99.90
45729;DHT22;31439;53.512;10.206;2022-11-15T12:28:25;11.80;99.90
45729;DHT22;31439;53.512;10.206;2022-11-15T12:30:59;11.80;99.90
45729;DHT22;31439;53.512;10.206;2022-11-15T12:36:08;11.90;99.90
45729;DHT22;31439;53.512;10.206;2022-11-15T12:39:00;12.00;99.90
45729;DHT22;31439;53.512;10.206;2022-11-15T12:41:34;12.10;99.90
45729;DHT22;31439;53.512;10.206;2022-11-15T12:44:01;12.30;99.90
45729;DHT22;31439;53.512;10.206;2022-11-15T12:49:03;12.70;99.90
45729;DHT22;31439;53.512;10.206;2022-11-15T13:00:16;12.80;99.90
45729;DHT22;31439;53.512;10.206;2022-11-15T13:02:40;12.70;99.90
45729;DHT22;31439;53.512;10.206;2022-11-15T13:17:47;12.60;99.90
45729;DHT22;31439;53.512;10.206;2022-11-15T13:30:52;12.70;99.90
45729;DHT22;31439;53.512;10.206;2022-11-15T13:33:20;12.70;99.90
45729;DHT22;31439;53.512;10.206;2022-11-15T13:35:49;12.70;99.90
45729;DHT22;31439;53.512;10.206;2022-11-15T13:38:36;12.70;99.90
45729;DHT22;31439;53.512;10.206;2022-11-15T13:41:24;12.70;99.90
45729;DHT22;31439;53.512;10.206;2022-11-15T13:43:52;12.80;99.90
45729;DHT22;31439;53.512;10.206;2022-11-15T13:46:20;13.00;99.90
45729;DHT22;31439;53.512;10.206;2022-11-15T13:48:51;13.00;99.90
45729;DHT22;31439;53.512;10.206;2022-11-15T13:54:39;13.10;99.90
45729;DHT22;31439;53.512;10.206;2022-11-15T13:57:13;13.10;99.90
45729;DHT22;31439;53.512;10.206;2022-11-15T13:59:53;13.10;99.90
45729;DHT22;31439;53.512;10.206;2022-11-15T14:02:31;13.30;99.90
45729;DHT22;31439;53.512;10.206;2022-11-15T14:05:15;13.40;99.90
45729;DHT22;31439;53.512;10.206;2022-11-15T14:07:56;13.60;99.90
45729;DHT22;31439;53.512;10.206;2022-11-15T14:10:40;13.80;99.90
45729;DHT22;31439;53.512;10.206;2022-11-15T14:13:28;14.20;99.90
45729;DHT22;31439;53.512;10.206;2022-11-15T14:15:54;14.70;99.90
45729;DHT22;31439;53.512;10.206;2022-11-15T14:18:56;15.10;99.90
45729;DHT22;31439;53.512;10.206;2022-11-15T14:21:22;15.50;99.90
45729;DHT22;31439;53.512;10.206;2022-11-15T14:23:47;15.50;99.90
45729;DHT22;31439;53.512;10.206;2022-11-15T14:26:33;15.50;99.90
45729;DHT22;31439;53.512;10.206;2022-11-15T14:29:34;15.10;99.90
45729;DHT22;31439;53.512;10.206;2022-11-15T14:32:13;14.60;99.90
45729;DHT22;31439;53.512;10.206;2022-11-15T14:34:39;14.40;99.90
45729;DHT22;31439;53.512;10.206;2022-11-15T14:37:07;14.20;99.90
45729;DHT22;31439;53.512;10.206;2022-11-15T14:39:33;13.90;99.90
45729;DHT22;31439;53.512;10.206;2022-11-15T14:41:59;13.60;99.90
45729;DHT22;31439;53.512;10.206;2022-11-15T14:44:24;13.30;99.90
45729;DHT22;31439;53.512;10.206;2022-11-15T14:46:50;13.20;99.90
45729;DHT22;31439;53.512;10.206;2022-11-15T14:49:15;13.00;99.90
45729;DHT22;31439;53.512;10.206;2022-11-15T14:51:41;12.80;99.90
45729;DHT22;31439;53.512;10.206;2022-11-15T14:54:10;12.80;99.90
45729;DHT22;31439;53.512;10.206;2022-11-15T14:56:35;12.70;99.90
45729;DHT22;31439;53.512;10.206;2022-11-15T14:59:01;12.50;99.90
45729;DHT22;31439;53.512;10.206;2022-11-15T15:01:27;12.50;99.90
45729;DHT22;31439;53.512;10.206;2022-11-15T15:03:53;12.40;99.90
45729;DHT22;31439;53.512;10.206;2022-11-15T15:06:23;12.40;99.90
45729;DHT22;31439;53.512;10.206;2022-11-15T15:08:49;12.20;99.90
45729;DHT22;31439;53.512;10.206;2022-11-15T15:11:25;12.10;99.90
45729;DHT22;31439;53.512;10.206;2022-11-15T15:13:52;12.00;99.90
45729;DHT22;31439;53.512;10.206;2022-11-15T15:16:21;12.00;99.90
45729;DHT22;31439;53.512;10.206;2022-11-15T15:18:47;11.80;99.90
45729;DHT22;31439;53.512;10.206;2022-11-15T15:21:28;11.80;99.90
45729;DHT22;31439;53.512;10.206;2022-11-15T15:23:54;11.80;99.90
45729;DHT22;31439;53.512;10.206;2022-11-15T15:26:20;11.80;99.90
45729;DHT22;31439;53.512;10.206;2022-11-15T15:28:46;11.70;99.90
45729;DHT22;31439;53.512;10.206;2022-11-15T15:31:14;11.50;99.90
45729;DHT22;31439;53.512;10.206;2022-11-15T15:33:39;11.60;99.90
45729;DHT22;31439;53.512;10.206;2022-11-15T15:36:12;11.60;99.90
45729;DHT22;31439;53.512;10.206;2022-11-15T15:38:38;11.60;99.90
45729;DHT22;31439;53.512;10.206;2022-11-15T15:41:14;11.60;99.90
45729;DHT22;31439;53.512;10.206;2022-11-15T15:43:40;11.50;99.90
45729;DHT22;31439;53.512;10.206;2022-11-15T15:46:16;11.50;99.90
45729;DHT22;31439;53.512;10.206;2022-11-15T15:48:43;11.50;99.90
45729;DHT22;31439;53.512;10.206;2022-11-15T15:51:09;11.40;99.90
45729;DHT22;31439;53.512;10.206;2022-11-15T15:53:35;11.40;99.90
45729;DHT22;31439;53.512;10.206;2022-11-15T15:56:01;11.40;99.90
45729;DHT22;31439;53.512;10.206;2022-11-15T15:58:27;11.40;99.90
45729;DHT22;31439;53.512;10.206;2022-11-15T16:00:52;11.50;99.90
45729;DHT22;31439;53.512;10.206;2022-11-15T16:03:18;11.40;99.90
45729;DHT22;31439;53.512;10.206;2022-11-15T16:05:44;11.30;99.90
45729;DHT22;31439;53.512;10.206;2022-11-15T16:08:21;11.30;99.90
45729;DHT22;31439;53.512;10.206;2022-11-15T16:10:48;11.30;99.90
45729;DHT22;31439;53.512;10.206;2022-11-15T16:13:13;11.40;99.90
45729;DHT22;31439;53.512;10.206;2022-11-15T16:15:39;11.30;99.90
45729;DHT22;31439;53.512;10.206;2022-11-15T16:18:05;11.30;99.90
45729;DHT22;31439;53.512;10.206;2022-11-15T16:22:58;11.30;99.90
45729;DHT22;31439;53.512;10.206;2022-11-15T16:25:25;11.30;99.90
45729;DHT22;31439;53.512;10.206;2022-11-15T16:27:51;11.30;99.90
45729;DHT22;31439;53.512;10.206;2022-11-15T16:30:19;11.30;99.90
45729;DHT22;31439;53.512;10.206;2022-11-15T16:32:45;11.30;99.90
45729;DHT22;31439;53.512;10.206;2022-11-15T16:35:17;11.30;99.90
45729;DHT22;31439;53.512;10.206;2022-11-15T16:37:45;11.30;99.90
45729;DHT22;31439;53.512;10.206;2022-11-15T16:42:45;11.30;99.90
45729;DHT22;31439;53.512;10.206;2022-11-15T16:45:12;11.30;99.90
45729;DHT22;31439;53.512;10.206;2022-11-15T16:47:39;11.30;99.90
45729;DHT22;31439;53.512;10.206;2022-11-15T16:50:05;11.30;99.90
45729;DHT22;31439;53.512;10.206;2022-11-15T16:52:30;11.30;99.90
45729;DHT22;31439;53.512;10.206;2022-11-15T16:54:56;11.30;99.90
45729;DHT22;31439;53.512;10.206;2022-11-15T16:57:22;11.30;99.90
45729;DHT22;31439;53.512;10.206;2022-11-15T16:59:47;11.30;99.90
45729;DHT22;31439;53.512;10.206;2022-11-15T17:02:13;11.30;99.90
45729;DHT22;31439;53.512;10.206;2022-11-15T17:04:46;11.30;99.90
45729;DHT22;31439;53.512;10.206;2022-11-15T17:07:12;11.30;99.90
45729;DHT22;31439;53.512;10.206;2022-11-15T17:09:37;11.30;99.90
45729;DHT22;31439;53.512;10.206;2022-11-15T17:12:03;11.30;99.90
45729;DHT22;31439;53.512;10.206;2022-11-15T17:14:29;11.40;99.90
45729;DHT22;31439;53.512;10.206;2022-11-15T17:16:54;11.40;99.90
45729;DHT22;31439;53.512;10.206;2022-11-15T17:19:20;11.40;99.90
45729;DHT22;31439;53.512;10.206;2022-11-15T17:21:47;11.40;99.90
45729;DHT22;31439;53.512;10.206;2022-11-15T17:24:16;11.40;99.90
45729;DHT22;31439;53.512;10.206;2022-11-15T17:26:42;11.40;99.90
45729;DHT22;31439;53.512;10.206;2022-11-15T17:29:08;11.40;99.90
45729;DHT22;31439;53.512;10.206;2022-11-15T17:31:37;11.40;99.90
45729;DHT22;31439;53.512;10.206;2022-11-15T17:34:04;11.30;99.90
45729;DHT22;31439;53.512;10.206;2022-11-15T17:36:30;11.30;99.90
45729;DHT22;31439;53.512;10.206;2022-11-15T17:38:56;11.30;99.90
45729;DHT22;31439;53.512;10.206;2022-11-15T17:41:27;11.30;99.90
45729;DHT22;31439;53.512;10.206;2022-11-15T17:44:31;11.40;99.90
45729;DHT22;31439;53.512;10.206;2022-11-15T17:47:21;12.00;99.90
45729;DHT22;31439;53.512;10.206;2022-11-15T17:49:46;12.20;99.90
45729;DHT22;31439;53.512;10.206;2022-11-15T17:52:12;12.00;99.90
45729;DHT22;31439;53.512;10.206;2022-11-15T17:54:38;11.70;99.90
45729;DHT22;31439;53.512;10.206;2022-11-15T17:57:03;11.60;99.90
45729;DHT22;31439;53.512;10.206;2022-11-15T17:59:29;11.50;99.90
45729;DHT22;31439;53.512;10.206;2022-11-15T18:01:54;11.40;99.90
45729;DHT22;31439;53.512;10.206;2022-11-15T18:04:20;11.40;99.90
45729;DHT22;31439;53.512;10.206;2022-11-15T18:06:47;11.40;99.90
45729;DHT22;31439;53.512;10.206;2022-11-15T18:09:13;11.30;99.90